| time (UTC) | temp F | wind direction | speed knots | gust knots | rain 1hr in | rain 24hr in | rain mn in | humidity % | barometer mb |
| 20260906164605 | 90 | 49 | 3.5 | 8.7 | 0.00 | 0.00 | 0.00 | 69 | 1016.7 |
| 20260906163105 | 90 | 354 | 0.9 | 6.1 | 0.00 | 0.00 | 0.00 | 71 | 1016.8 |
| 20260906161607 | 89 | 316 | 0.9 | 9.6 | 0.00 | 0.00 | 0.00 | 72 | 1016.8 |
| 20260906160105 | 87 | 101 | 1.7 | 7.8 | 0.00 | 0.00 | 0.00 | 75 | 1016.8 |
| 20260906154607 | 87 | 66 | 0.9 | 4.3 | 0.00 | 0.00 | 0.00 | 76 | 1016.7 |
| 20260906153107 | 86 | 0 | 0.9 | 3.5 | 0.00 | 0.00 | 0.00 | 77 | 1016.5 |
| 20260906151606 | 85 | 41 | 1.7 | 6.1 | 0.00 | 0.00 | 0.00 | 78 | 1016.6 |
| 20260906150113 | 84 | 125 | 1.7 | 4.3 | 0.00 | 0.00 | 0.00 | 79 | 1016.7 |
| 20260906144623 | 84 | 105 | 2.6 | 5.2 | 0.00 | 0.00 | 0.00 | 80 | 1016.6 |
| 20260906143106 | 84 | 53 | 0.9 | 6.1 | 0.00 | 0.00 | 0.00 | 80 | 1016.5 |
| 20260906141632 | 83 | 79 | 0.0 | 5.2 | 0.00 | 0.00 | 0.00 | 82 | 1016.6 |
| 20260906140110 | 82 | 70 | 0.9 | 6.1 | 0.00 | 0.00 | 0.00 | 82 | 1016.5 |
| 20260906134608 | 81 | 61 | 1.7 | 6.1 | 0.00 | 0.00 | 0.00 | 84 | 1016.4 |
| 20260906133106 | 81 | 63 | 0.0 | 7.0 | 0.00 | 0.00 | 0.00 | 85 | 1016.3 |
| 20260906131607 | 79 | 82 | 0.0 | 4.3 | 0.00 | 0.00 | 0.00 | 89 | 1016.5 |
| 20260906130106 | 76 | 63 | 0.0 | 2.6 | 0.00 | 0.00 | 0.00 | 93 | 1016.3 |
| 20260906124607 | 73 | 0 | 0.0 | 0.9 | 0.00 | 0.00 | 0.00 | 95 | 1016.2 |
| 20260906123106 | 71 | 0 | 0.0 | 0.9 | 0.00 | 0.00 | 0.00 | 94 | 1016.0 |
| 20260906121607 | 71 | 217 | 0.0 | 0.0 | 0.00 | 0.00 | 0.00 | 94 | 1015.7 |
| 20260906120106 | 71 | 0 | 0.0 | 0.0 | 0.00 | 0.00 | 0.00 | 94 | 1015.7 |
| 20260906114608 | 71 | 0 | 0.0 | 0.0 | 0.00 | 0.00 | 0.00 | 94 | 1015.4 |
| 20260906113107 | 71 | 0 | 0.0 | 0.9 | 0.00 | 0.00 | 0.00 | 93 | 1015.4 |
| 20260906111603 | 72 | 0 | 0.0 | 0.0 | 0.00 | 0.00 | 0.00 | 94 | 1015.3 |
| 20260906110106 | 72 | 0 | 0.0 | 0.0 | 0.00 | 0.00 | 0.00 | 93 | 1015.2 |
| 20260906104626 | 72 | 0 | 0.0 | 0.0 | 0.00 | 0.00 | 0.00 | 93 | 1015.4 |
| 20260906103110 | 72 | 0 | 0.0 | 0.0 | 0.00 | 0.00 | 0.00 | 93 | 1015.2 |
| 20260906101604 | 72 | 0 | 0.0 | 0.0 | 0.00 | 0.00 | 0.00 | 93 | 1015.1 |
| 20260906100103 | 72 | 0 | 0.0 | 0.0 | 0.00 | 0.00 | 0.00 | 93 | 1014.9 |
| 20260906094643 | 72 | 0 | 0.0 | 0.0 | 0.00 | 0.00 | 0.00 | 93 | 1014.8 |
| 20260906093108 | 72 | 0 | 0.0 | 0.0 | 0.00 | 0.00 | 0.00 | 92 | 1014.7 |
| 20260906091617 | 73 | 0 | 0.0 | 0.0 | 0.00 | 0.00 | 0.00 | 93 | 1014.6 |
| 20260906090108 | 73 | 0 | 0.0 | 0.0 | 0.00 | 0.00 | 0.00 | 92 | 1014.4 |
| 20260906084605 | 73 | 0 | 0.0 | 0.0 | 0.00 | 0.00 | 0.00 | 92 | 1014.4 |
| 20260906083106 | 73 | 0 | 0.0 | 0.0 | 0.00 | 0.00 | 0.00 | 92 | 1014.3 |
| 20260906081604 | 73 | 0 | 0.0 | 0.0 | 0.00 | 0.00 | 0.00 | 92 | 1014.2 |
| 20260906080104 | 73 | 0 | 0.0 | 0.9 | 0.00 | 0.00 | 0.00 | 91 | 1014.2 |
| 20260906074613 | 74 | 0 | 0.0 | 0.0 | 0.00 | 0.00 | 0.00 | 91 | 1014.1 |
| 20260906073105 | 74 | 0 | 0.0 | 0.0 | 0.00 | 0.00 | 0.00 | 91 | 1014.2 |
| 20260906071607 | 74 | 0 | 0.0 | 0.0 | 0.00 | 0.00 | 0.00 | 91 | 1014.3 |
| 20260906070107 | 74 | 0 | 0.0 | 0.0 | 0.00 | 0.00 | 0.00 | 91 | 1014.4 |
| 20260906064604 | 74 | 0 | 0.0 | 0.0 | 0.00 | 0.00 | 0.00 | 91 | 1014.8 |
| 20260906063109 | 74 | 0 | 0.0 | 0.0 | 0.00 | 0.00 | 0.00 | 89 | 1014.7 |
| 20260906061610 | 75 | 0 | 0.0 | 0.0 | 0.00 | 0.00 | 0.00 | 87 | 1014.7 |
| 20260906060112 | 75 | 0 | 0.0 | 0.0 | 0.00 | 0.00 | 0.00 | 87 | 1014.7 |
| 20260906054601 | 75 | 0 | 0.0 | 0.0 | 0.00 | 0.00 | 0.00 | 88 | 1014.9 |
| 20260906053109 | 76 | 0 | 0.0 | 0.0 | 0.00 | 0.00 | 0.00 | 86 | 1014.9 |
| 20260906051605 | 76 | 0 | 0.0 | 0.0 | 0.00 | 0.00 | 0.00 | 86 | 1014.6 |
| 20260906050135 | 76 | 0 | 0.0 | 0.0 | 0.00 | 0.00 | 0.00 | 86 | 1014.6 |
| 20260906044602 | 77 | 0 | 0.0 | 0.0 | 0.00 | 0.00 | 0.00 | 86 | 1014.7 |
| 20260906043103 | 77 | 0 | 0.0 | 0.0 | 0.00 | 0.00 | 0.00 | 87 | 1014.7 |
| 20260906041605 | 77 | 0 | 0.0 | 0.0 | 0.00 | 0.00 | 0.00 | 86 | 1014.8 |
| 20260906040139 | 77 | 0 | 0.0 | 1.7 | 0.00 | 0.00 | 0.00 | 85 | 1014.7 |
| 20260906034606 | 78 | 0 | 0.0 | 0.0 | 0.00 | 0.00 | 0.00 | 82 | 1014.4 |
| 20260906033104 | 78 | 0 | 0.0 | 0.0 | 0.00 | 0.00 | 0.00 | 82 | 1014.3 |
| 20260906031606 | 79 | 0 | 0.0 | 0.0 | 0.00 | 0.00 | 0.00 | 81 | 1014.1 |
| 20260906030114 | 80 | 0 | 0.0 | 0.0 | 0.00 | 0.00 | 0.00 | 79 | 1014.2 |
| 20260906024606 | 80 | 0 | 0.0 | 1.7 | 0.00 | 0.00 | 0.00 | 79 | 1014.3 |
| 20260906023105 | 80 | 0 | 0.0 | 0.0 | 0.00 | 0.00 | 0.00 | 79 | 1014.0 |
| 20260906021609 | 81 | 0 | 0.0 | 0.0 | 0.00 | 0.00 | 0.00 | 77 | 1013.7 |
| 20260906020107 | 82 | 0 | 0.0 | 0.0 | 0.00 | 0.00 | 0.00 | 75 | 1013.6 |
| 20260906014602 | 83 | 65 | 0.0 | 0.9 | 0.00 | 0.00 | 0.00 | 72 | 1013.1 |
| 20260906013104 | 84 | 0 | 0.0 | 0.0 | 0.00 | 0.00 | 0.00 | 69 | 1013.0 |
| 20260906011605 | 85 | 0 | 0.0 | 0.9 | 0.00 | 0.00 | 0.00 | 66 | 1012.9 |
| 20260906010109 | 86 | 0 | 0.0 | 0.0 | 0.00 | 0.00 | 0.00 | 66 | 1012.9 |
| 20260906004605 | 88 | 0 | 0.0 | 0.0 | 0.00 | 0.00 | 0.00 | 60 | 1012.9 |
| 20260906003108 | 91 | 0 | 0.0 | 0.9 | 0.00 | 0.00 | 0.00 | 56 | 1012.8 |
| 20260906001619 | 93 | 0 | 0.0 | 0.9 | 0.00 | 0.00 | 0.00 | 50 | 1012.9 |
| 20260906000107 | 95 | 65 | 0.0 | 1.7 | 0.00 | 0.00 | 0.00 | 49 | 1013.0 |
| 20260905234602 | 96 | 11 | 0.0 | 1.7 | 0.00 | 0.00 | 0.00 | 46 | 1013.0 |
| 20260905233113 | 97 | 0 | 0.0 | 2.6 | 0.00 | 0.00 | 0.00 | 45 | 1012.8 |
| 20260905231607 | 97 | 0 | 0.9 | 4.3 | 0.00 | 0.00 | 0.00 | 44 | 1012.8 |
| 20260905230113 | 97 | 320 | 1.7 | 4.3 | 0.00 | 0.00 | 0.00 | 43 | 1012.9 |
| 20260905224607 | 98 | 318 | 1.7 | 5.2 | 0.00 | 0.00 | 0.00 | 43 | 1012.8 |
| 20260905223106 | 97 | 68 | 2.6 | 5.2 | 0.00 | 0.00 | 0.00 | 45 | 1012.9 |
| 20260905221606 | 95 | 322 | 0.9 | 4.3 | 0.00 | 0.00 | 0.00 | 48 | 1013.0 |
| 20260905220105 | 96 | 290 | 1.7 | 4.3 | 0.00 | 0.00 | 0.00 | 48 | 1013.1 |
| 20260905214608 | 96 | 321 | 0.9 | 4.3 | 0.00 | 0.00 | 0.00 | 45 | 1013.1 |
| 20260905213110 | 97 | 305 | 3.5 | 7.0 | 0.00 | 0.00 | 0.00 | 44 | 1013.2 |
| 20260905211606 | 98 | 27 | 3.5 | 9.6 | 0.00 | 0.00 | 0.00 | 42 | 1013.3 |
| 20260905210113 | 98 | 291 | 3.5 | 9.6 | 0.00 | 0.00 | 0.00 | 41 | 1013.5 |
| 20260905204604 | 99 | 40 | 2.6 | 6.1 | 0.00 | 0.00 | 0.00 | 41 | 1013.5 |
| 20260905203100 | 99 | 316 | 2.6 | 6.1 | 0.00 | 0.00 | 0.00 | 40 | 1013.7 |
| 20260905201610 | 100 | 299 | 2.6 | 7.0 | 0.00 | 0.00 | 0.00 | 40 | 1013.8 |
| 20260905200150 | 100 | 331 | 1.7 | 6.1 | 0.00 | 0.00 | 0.00 | 38 | 1014.0 |
| 20260905194614 | 100 | 290 | 1.7 | 6.1 | 0.00 | 0.00 | 0.00 | 40 | 1014.2 |
| 20260905193057 | 100 | 299 | 3.5 | 7.8 | 0.00 | 0.00 | 0.00 | 42 | 1014.2 |
| 20260905191603 | 99 | 310 | 2.6 | 6.1 | 0.00 | 0.00 | 0.00 | 38 | 1014.4 |
| 20260905190104 | 99 | 47 | 4.3 | 7.8 | 0.00 | 0.00 | 0.00 | 41 | 1014.5 |
| 20260905184611 | 98 | 317 | 3.5 | 8.7 | 0.00 | 0.00 | 0.00 | 46 | 1014.9 |
| 20260905183112 | 98 | 306 | 2.6 | 7.8 | 0.00 | 0.00 | 0.00 | 47 | 1015.0 |
| 20260905181610 | 97 | 237 | 3.5 | 11.3 | 0.00 | 0.00 | 0.00 | 44 | 1015.2 |
| 20260905180116 | 97 | 49 | 3.5 | 8.7 | 0.00 | 0.00 | 0.00 | 44 | 1015.3 |
| 20260905174606 | 96 | 307 | 2.6 | 7.0 | 0.00 | 0.00 | 0.00 | 47 | 1015.4 |
| 20260905173106 | 96 | 41 | 2.6 | 7.8 | 0.00 | 0.00 | 0.00 | 47 | 1015.7 |
| 20260905171608 | 95 | 292 | 2.6 | 7.8 | 0.00 | 0.00 | 0.00 | 50 | 1015.8 |
| 20260905170107 | 95 | 317 | 2.6 | 7.8 | 0.00 | 0.00 | 0.00 | 50 | 1015.8 |